Time;durP1;ratioP1;P1;durP2;ratioP2;P2;SDS_P1;SDS_P2;PMS_P1;PMS_P2;Temp;Humidity;BMP_temperature;BMP_pressure;BME280_temperature;BME280_humidity;BME280_pressure;Samples;Min_cycle;Max_cycle;Signal;HPM_P1;HPM_P2
2023/04/01 00:01:03;;;;;;;0.10;0.10;;;;;;;8.84;81.08;94231.44;4373455;32;20345;-52
2023/04/01 00:03:29;;;;;;;0.00;0.00;;;;;;;8.81;81.63;94232.84;4390514;32;20259;-52
2023/04/01 00:05:57;;;;;;;0.00;0.00;;;;;;;8.76;81.94;94232.97;4389867;32;20280;-54
2023/04/01 00:08:23;;;;;;;0.00;0.00;;;;;;;8.76;82.22;94237.47;4390455;32;20313;-52
2023/04/01 00:10:48;;;;;;;0.00;0.00;;;;;;;8.80;81.82;94218.06;4391036;32;20280;-53
2023/04/01 00:13:14;;;;;;;0.30;0.27;;;;;;;8.66;82.42;94220.06;4389703;32;20319;-54
2023/04/01 00:15:40;;;;;;;0.20;0.20;;;;;;;8.73;82.13;94223.00;4380953;32;20282;-52
2023/04/01 00:18:06;;;;;;;0.00;0.00;;;;;;;8.71;82.19;94216.50;4376083;32;20235;-50
2023/04/01 00:20:31;;;;;;;0.30;0.23;;;;;;;8.83;82.27;94212.16;4380433;32;20210;-49
2023/04/01 00:22:57;;;;;;;0.00;0.00;;;;;;;8.67;81.67;94205.75;4386103;32;20200;-51
2023/04/01 00:25:23;;;;;;;0.10;0.10;;;;;;;8.64;82.28;94203.72;4386163;32;20176;-51
2023/04/01 00:27:49;;;;;;;0.20;0.20;;;;;;;8.71;81.64;94192.69;4391646;32;20226;-51
2023/04/01 00:30:15;;;;;;;0.20;0.20;;;;;;;8.58;82.08;94212.88;4389856;32;20280;-48
2023/04/01 00:32:40;;;;;;;0.30;0.27;;;;;;;8.67;82.27;94199.69;4375848;32;20283;-52
2023/04/01 00:35:06;;;;;;;1.17;0.20;;;;;;;8.51;82.29;94197.47;4385374;32;20222;-53
2023/04/01 00:37:35;;;;;;;0.10;0.10;;;;;;;8.55;82.32;94203.69;4387973;32;20212;-52
2023/04/01 00:40:01;;;;;;;0.00;0.00;;;;;;;8.63;82.17;94196.09;4385482;32;20197;-52
2023/04/01 00:42:26;;;;;;;0.07;0.07;;;;;;;8.61;82.19;94193.75;4371259;32;20351;-54
2023/04/01 00:44:54;;;;;;;0.10;0.10;;;;;;;8.67;81.95;94197.81;4391323;32;20218;-52
2023/04/01 00:47:20;;;;;;;0.43;0.40;;;;;;;8.71;81.75;94193.47;4376343;32;20204;-53
2023/04/01 00:49:51;;;;;;;0.00;0.00;;;;;;;8.60;81.79;94192.97;4390669;32;20299;-51
2023/04/01 00:52:22;;;;;;;0.00;0.00;;;;;;;8.60;81.89;94197.50;4375437;32;20177;-55
2023/04/01 00:54:52;;;;;;;0.00;0.00;;;;;;;8.53;82.85;94199.78;4389700;32;20299;-53
2023/04/01 00:57:27;;;;;;;0.60;0.30;;;;;;;8.55;82.32;94205.56;4392148;32;20327;-55
2023/04/01 00:59:54;;;;;;;0.10;0.10;;;;;;;8.46;82.48;94197.62;4388603;32;20279;-52
2023/04/01 01:02:20;;;;;;;0.00;0.00;;;;;;;8.49;82.93;94197.00;4391557;32;20284;-58
2023/04/01 01:04:46;;;;;;;1.40;0.77;;;;;;;8.64;82.11;94193.16;4378242;32;20295;-51
2023/04/01 01:07:32;;;;;;;0.00;0.00;;;;;;;8.57;81.94;94195.47;4391615;32;20248;-51
2023/04/01 01:10:29;;;;;;;0.07;0.07;;;;;;;8.48;82.52;94194.69;4388750;32;20193;-54
2023/04/01 01:13:03;;;;;;;0.03;0.03;;;;;;;8.64;81.67;94193.16;4387331;32;20325;-53
2023/04/01 01:15:35;;;;;;;0.17;0.17;;;;;;;8.78;81.15;94193.00;4384720;32;20273;-53
2023/04/01 01:18:13;;;;;;;0.03;0.03;;;;;;;8.73;81.06;94203.75;4388540;32;20349;-52
2023/04/01 01:21:19;;;;;;;0.40;0.40;;;;;;;8.70;80.85;94197.22;4380566;32;20288;-54
2023/04/01 01:23:51;;;;;;;0.30;0.30;;;;;;;8.74;81.46;94200.00;4349204;32;20276;-52
2023/04/01 01:26:32;;;;;;;0.13;0.13;;;;;;;8.87;80.75;94210.44;4391444;32;20362;-50
2023/04/01 01:29:22;;;;;;;0.97;0.63;;;;;;;8.79;80.68;94197.97;4375836;32;20306;-52
2023/04/01 01:32:06;;;;;;;0.10;0.10;;;;;;;8.71;80.86;94187.41;4386682;32;20281;-49
2023/04/01 01:35:23;;;;;;;0.20;0.20;;;;;;;8.82;80.78;94205.31;4375543;32;20318;-53
2023/04/01 01:37:55;;;;;;;0.73;0.23;;;;;;;8.84;80.62;94203.13;4371954;32;20284;-54
2023/04/01 01:40:21;;;;;;;0.00;0.00;;;;;;;8.84;80.93;94203.13;4386760;32;20272;-55
2023/04/01 01:42:50;;;;;;;0.43;0.20;;;;;;;8.86;80.59;94195.66;4393328;32;20268;-54
2023/04/01 01:45:20;;;;;;;0.37;0.37;;;;;;;8.71;81.24;94188.19;4373507;32;20276;-50
2023/04/01 01:47:48;;;;;;;1.90;0.20;;;;;;;8.66;81.23;94188.34;4384476;32;20284;-50
2023/04/01 01:50:16;;;;;;;0.10;0.10;;;;;;;8.60;81.42;94187.69;4374727;32;20272;-54
2023/04/01 01:52:41;;;;;;;0.10;0.07;;;;;;;8.75;81.68;94189.09;4377518;32;20273;-54
2023/04/01 01:55:26;;;;;;;0.00;0.00;;;;;;;8.79;81.05;94173.41;4389107;32;20275;-52
2023/04/01 01:57:51;;;;;;;0.00;0.00;;;;;;;8.67;81.48;94187.25;4388520;32;20180;-52
2023/04/01 02:00:18;;;;;;;0.10;0.10;;;;;;;8.74;81.45;94184.13;4385523;32;20277;-52
2023/04/01 02:02:47;;;;;;;0.00;0.00;;;;;;;8.69;81.33;94185.06;4383289;32;20226;-52
2023/04/01 02:05:18;;;;;;;0.07;0.07;;;;;;;8.69;81.13;94193.00;4383678;32;20292;-54
2023/04/01 02:07:48;;;;;;;0.00;0.00;;;;;;;8.79;80.80;94190.06;4375464;32;20310;-53
2023/04/01 02:10:14;;;;;;;0.00;0.00;;;;;;;8.81;80.59;94179.16;4389483;32;20307;-55
2023/04/01 02:12:44;;;;;;;0.30;0.30;;;;;;;8.81;80.81;94195.81;4390439;32;20276;-52
2023/04/01 02:15:13;;;;;;;0.00;0.00;;;;;;;8.70;81.04;94199.84;4375563;32;20346;-53
2023/04/01 02:17:43;;;;;;;0.10;0.10;;;;;;;8.72;81.34;94202.97;4384725;32;20284;-49
2023/04/01 02:20:14;;;;;;;0.20;0.20;;;;;;;8.83;80.32;94209.50;4376936;32;20296;-53
2023/04/01 02:22:47;;;;;;;0.00;0.00;;;;;;;8.77;80.20;94205.44;4381247;32;23074;-54
2023/04/01 02:25:21;;;;;;;0.00;0.00;;;;;;;8.72;80.68;94204.84;4377132;32;20284;-53
2023/04/01 02:27:47;;;;;;;0.00;0.00;;;;;;;8.60;80.92;94198.28;4388971;32;20284;-51
2023/04/01 02:30:14;;;;;;;0.00;0.00;;;;;;;8.65;80.30;94205.28;4384014;32;20401;-52
2023/04/01 02:32:40;;;;;;;0.10;0.10;;;;;;;8.73;80.44;94214.31;4391694;32;20268;-54
2023/04/01 02:35:10;;;;;;;0.10;0.10;;;;;;;8.75;79.61;94189.09;4387651;32;20323;-53
2023/04/01 02:37:36;;;;;;;0.00;0.00;;;;;;;8.74;79.46;94202.63;4380613;32;20312;-52
2023/04/01 02:40:06;;;;;;;0.20;0.20;;;;;;;8.75;79.42;94194.41;4379323;32;20277;-52
2023/04/01 02:42:31;;;;;;;0.00;0.00;;;;;;;8.72;79.34;94205.63;4384915;32;20276;-54
2023/04/01 02:44:57;;;;;;;0.00;0.00;;;;;;;8.86;79.02;94208.87;4377629;32;20276;-54
2023/04/01 02:47:22;;;;;;;0.40;0.40;;;;;;;8.71;79.39;94214.63;4393208;32;20181;-50
2023/04/01 02:49:47;;;;;;;0.30;0.10;;;;;;;8.74;79.11;94211.34;4374370;32;20181;-53
2023/04/01 02:52:13;;;;;;;0.00;0.00;;;;;;;8.67;79.27;94207.63;4392638;32;20212;-53
2023/04/01 02:54:38;;;;;;;0.20;0.20;;;;;;;8.71;79.48;94204.06;4392304;32;20216;-52
2023/04/01 02:57:04;;;;;;;0.00;0.00;;;;;;;8.61;79.01;94210.41;4378444;32;20196;-52
2023/04/01 02:59:29;;;;;;;0.20;0.20;;;;;;;8.70;79.31;94210.44;4379107;32;20199;-51
2023/04/01 03:01:54;;;;;;;0.20;0.10;;;;;;;8.87;78.87;94207.81;4391454;32;20180;-53
2023/04/01 03:04:20;;;;;;;0.13;0.13;;;;;;;8.73;79.19;94209.78;4393147;32;20206;-60
2023/04/01 03:06:45;;;;;;;0.00;0.00;;;;;;;8.69;79.79;94216.03;4381722;32;20218;-52
2023/04/01 03:09:11;;;;;;;0.00;0.00;;;;;;;8.72;79.54;94212.75;4392082;32;20181;-52
2023/04/01 03:11:36;;;;;;;0.00;0.00;;;;;;;8.71;79.37;94209.34;4391113;32;20203;-52
2023/04/01 03:14:01;;;;;;;0.00;0.00;;;;;;;8.69;79.56;94216.81;4386549;32;20257;-53
2023/04/01 03:16:27;;;;;;;0.00;0.00;;;;;;;8.85;78.55;94214.50;4379266;32;20219;-51
2023/04/01 03:18:53;;;;;;;0.00;0.00;;;;;;;8.61;79.52;94222.84;4390294;32;20240;-51
2023/04/01 03:21:22;;;;;;;0.00;0.00;;;;;;;8.64;79.61;94221.44;4392597;32;20188;-52
2023/04/01 03:23:47;;;;;;;0.00;0.00;;;;;;;8.58;80.27;94212.88;4379406;32;20296;-51
2023/04/01 03:26:13;;;;;;;0.00;0.00;;;;;;;8.63;79.93;94214.59;4376267;32;20339;-52
2023/04/01 03:28:38;;;;;;;0.00;0.00;;;;;;;8.73;79.17;94225.66;4390048;32;20210;-53
2023/04/01 03:31:04;;;;;;;0.10;0.10;;;;;;;8.59;79.74;94225.00;4384729;32;20203;-54
2023/04/01 03:33:30;;;;;;;0.00;0.00;;;;;;;8.58;79.66;94215.53;4375424;32;20243;-51
2023/04/01 03:35:56;;;;;;;0.17;0.17;;;;;;;8.58;79.68;94226.09;4378165;32;20211;-51
2023/04/01 03:38:21;;;;;;;0.13;0.13;;;;;;;8.65;79.73;94215.84;4387174;32;20256;-53
2023/04/01 03:40:46;;;;;;;0.00;0.00;;;;;;;8.64;79.20;94224.09;4388762;32;20185;-53
2023/04/01 03:43:12;;;;;;;0.00;0.00;;;;;;;8.56;79.31;94207.13;4389699;32;20239;-52
2023/04/01 03:45:48;;;;;;;0.00;0.00;;;;;;;8.49;79.60;94227.94;4392930;32;20247;-51
2023/04/01 03:48:14;;;;;;;0.00;0.00;;;;;;;8.40;80.09;94230.56;4372098;32;20203;-52
2023/04/01 03:50:40;;;;;;;0.00;0.00;;;;;;;8.30;80.34;94240.59;4387126;32;20292;-52
2023/04/01 03:53:05;;;;;;;0.00;0.00;;;;;;;8.33;80.51;94245.28;4386199;32;20294;-55
2023/04/01 03:55:30;;;;;;;0.00;0.00;;;;;;;8.21;81.06;94243.97;4390521;32;20215;-54
2023/04/01 03:57:55;;;;;;;0.00;0.00;;;;;;;8.30;81.56;94241.38;4389927;32;20281;-53
2023/04/01 04:00:22;;;;;;;0.00;0.00;;;;;;;8.37;80.90;94236.44;4391633;32;20180;-53
2023/04/01 04:02:48;;;;;;;0.00;0.00;;;;;;;8.31;81.18;94242.16;4384971;32;20180;-52
2023/04/01 04:05:14;;;;;;;0.00;0.00;;;;;;;8.22;81.12;94234.97;4389591;32;20310;-50
2023/04/01 04:07:39;;;;;;;0.60;0.10;;;;;;;8.32;81.13;94243.69;4383806;32;20230;-51
2023/04/01 04:10:05;;;;;;;0.00;0.00;;;;;;;8.27;81.42;94244.63;4385776;32;20284;-50
2023/04/01 04:12:30;;;;;;;0.00;0.00;;;;;;;8.31;81.74;94242.16;4384504;32;20319;-52
2023/04/01 04:14:56;;;;;;;0.17;0.17;;;;;;;8.34;81.47;94249.47;4385252;32;20316;-52
2023/04/01 04:17:21;;;;;;;0.00;0.00;;;;;;;8.40;81.01;94246.41;4382552;32;20189;-52
2023/04/01 04:19:46;;;;;;;0.00;0.00;;;;;;;8.45;81.13;94245.50;4377506;32;20189;-50
2023/04/01 04:22:12;;;;;;;0.00;0.00;;;;;;;8.37;81.06;94244.38;4380880;32;20208;-52
2023/04/01 04:24:37;;;;;;;0.00;0.00;;;;;;;8.46;81.10;94245.19;4386652;32;20184;-50
2023/04/01 04:27:03;;;;;;;0.10;0.10;;;;;;;8.42;81.32;94235.53;4387296;32;20241;-52
2023/04/01 04:29:29;;;;;;;0.00;0.00;;;;;;;8.36;81.14;94252.59;4390796;32;20185;-51
2023/04/01 04:31:55;;;;;;;0.00;0.00;;;;;;;8.31;81.75;94244.81;4391708;32;20192;-52
2023/04/01 04:34:22;;;;;;;0.03;0.03;;;;;;;8.38;82.46;94237.22;4391872;32;20343;-60
2023/04/01 04:36:47;;;;;;;0.30;0.30;;;;;;;8.26;82.01;94249.13;4374978;32;20212;-49
2023/04/01 04:39:13;;;;;;;0.10;0.10;;;;;;;8.37;81.76;94244.38;4391785;32;20280;-51
2023/04/01 04:41:38;;;;;;;0.10;0.10;;;;;;;8.52;81.26;94248.47;4391984;32;20216;-52
2023/04/01 04:44:05;;;;;;;0.20;0.20;;;;;;;8.41;81.43;94255.91;4389197;32;20196;-49
2023/04/01 04:46:30;;;;;;;1.13;0.27;;;;;;;8.38;81.76;94263.66;4377624;32;20281;-51
2023/04/01 04:48:56;;;;;;;0.00;0.00;;;;;;;8.45;81.52;94266.63;4390269;32;20327;-52
2023/04/01 04:51:21;;;;;;;2.63;0.40;;;;;;;8.30;81.80;94273.09;4372685;32;20196;-53
2023/04/01 04:53:47;;;;;;;0.00;0.00;;;;;;;8.38;81.56;94264.44;4393138;32;20255;-48
2023/04/01 04:56:16;;;;;;;0.30;0.30;;;;;;;8.36;81.79;94271.88;4391493;32;20203;-48
2023/04/01 04:58:42;;;;;;;0.10;0.10;;;;;;;8.39;81.63;94270.50;4383977;32;20189;-52
2023/04/01 05:01:12;;;;;;;0.00;0.00;;;;;;;8.37;81.99;94272.66;4386869;32;20309;-50
2023/04/01 05:03:38;;;;;;;0.00;0.00;;;;;;;8.46;81.47;94273.47;4383562;32;20238;-48
2023/04/01 05:06:04;;;;;;;0.00;0.00;;;;;;;8.49;81.41;94275.53;4387256;32;20352;-49
2023/04/01 05:08:30;;;;;;;0.30;0.30;;;;;;;8.52;81.34;94266.97;4385235;32;20203;-52
2023/04/01 05:10:56;;;;;;;0.00;0.00;;;;;;;8.52;81.31;94274.91;4388016;32;20335;-53
2023/04/01 05:13:21;;;;;;;0.00;0.00;;;;;;;8.64;80.49;94272.47;4388461;32;20199;-52
2023/04/01 05:15:46;;;;;;;0.00;0.00;;;;;;;8.61;80.35;94263.25;4385378;32;20249;-51
2023/04/01 05:18:12;;;;;;;0.13;0.13;;;;;;;8.54;80.15;94270.06;4389982;32;20176;-50
2023/04/01 05:20:37;;;;;;;0.20;0.20;;;;;;;8.59;79.95;94260.16;4372381;32;20265;-49
2023/04/01 05:23:02;;;;;;;0.00;0.00;;;;;;;8.60;80.23;94266.22;4384309;32;20185;-55
2023/04/01 05:25:28;;;;;;;0.10;0.10;;;;;;;8.65;79.83;94271.38;4389288;32;20237;-52
2023/04/01 05:27:53;;;;;;;0.00;0.00;;;;;;;8.60;79.06;94263.56;4385937;32;20214;-52
2023/04/01 05:30:19;;;;;;;0.00;0.00;;;;;;;8.67;79.11;94261.28;4375254;32;20331;-51
2023/04/01 05:32:44;;;;;;;7.03;0.63;;;;;;;8.65;78.62;94263.44;4377321;32;20265;-52
2023/04/01 05:35:10;;;;;;;0.17;0.10;;;;;;;8.69;78.91;94258.31;4386244;32;20348;-50
2023/04/01 05:37:36;;;;;;;0.00;0.00;;;;;;;8.64;78.47;94256.59;4387744;32;20184;-48
2023/04/01 05:40:03;;;;;;;0.00;0.00;;;;;;;8.74;78.31;94258.94;4383452;32;20204;-53
2023/04/01 05:42:28;;;;;;;0.43;0.17;;;;;;;8.70;78.34;94250.09;4370677;32;20288;-51
2023/04/01 05:44:55;;;;;;;0.03;0.03;;;;;;;8.60;78.23;94258.28;4387086;32;20287;-52
2023/04/01 05:47:20;;;;;;;0.00;0.00;;;;;;;8.61;78.57;94262.50;4385330;32;20184;-60
2023/04/01 05:49:46;;;;;;;0.00;0.00;;;;;;;8.63;77.77;94270.91;4372094;32;20298;-53
2023/04/01 05:52:11;;;;;;;0.00;0.00;;;;;;;8.73;77.63;94265.31;4382543;32;20180;-53
2023/04/01 05:54:37;;;;;;;0.10;0.10;;;;;;;8.74;77.46;94266.88;4382818;32;20189;-50
2023/04/01 05:57:02;;;;;;;0.10;0.10;;;;;;;8.83;77.34;94259.75;4384827;32;20181;-51
2023/04/01 05:59:28;;;;;;;0.10;0.10;;;;;;;8.80;76.40;94270.16;4385956;32;20251;-53
2023/04/01 06:01:53;;;;;;;0.17;0.17;;;;;;;8.75;76.83;94263.13;4387944;32;20184;-54
2023/04/01 06:04:18;;;;;;;0.00;0.00;;;;;;;8.74;76.98;94264.22;4388902;32;20203;-53
2023/04/01 06:06:44;;;;;;;0.00;0.00;;;;;;;8.69;76.26;94253.81;4377917;32;20207;-51
2023/04/01 06:09:23;;;;;;;0.03;0.03;;;;;;;8.85;76.67;94265.50;4388418;32;20196;-48
2023/04/01 06:12:07;;;;;;;0.27;0.27;;;;;;;8.74;77.12;94263.44;4380028;32;20226;-54
2023/04/01 06:14:41;;;;;;;0.10;0.10;;;;;;;8.85;76.58;94262.88;4392931;32;20317;-53
2023/04/01 06:17:37;;;;;;;0.00;0.00;;;;;;;8.81;76.00;94261.13;4388712;32;20338;-53
2023/04/01 06:20:17;;;;;;;0.30;0.30;;;;;;;8.90;75.83;94264.59;4385383;32;20272;-55
2023/04/01 06:23:09;;;;;;;0.33;0.30;;;;;;;8.93;75.93;94269.28;4372250;32;20388;-50
2023/04/01 06:25:44;;;;;;;0.00;0.00;;;;;;;8.84;75.27;94268.47;4386337;32;20273;-52
2023/04/01 06:28:38;;;;;;;0.10;0.10;;;;;;;8.94;74.78;94252.28;4380081;32;20291;-52
2023/04/01 06:31:09;;;;;;;0.10;0.10;;;;;;;8.89;74.39;94253.25;4384971;32;20283;-51
2023/04/01 06:33:42;;;;;;;0.10;0.10;;;;;;;8.89;73.95;94266.47;4388846;32;20351;-51
2023/04/01 06:36:25;;;;;;;0.93;0.30;;;;;;;9.01;74.25;94268.50;4392101;32;20378;-49
2023/04/01 06:39:09;;;;;;;1.03;0.77;;;;;;;8.95;74.90;94273.12;4371231;32;20276;-60
2023/04/01 06:41:56;;;;;;;2.93;0.43;;;;;;;8.85;74.54;94270.81;4379392;32;20409;-53
2023/04/01 06:44:54;;;;;;;0.00;0.00;;;;;;;8.94;74.60;94274.22;4391090;32;20415;-53
2023/04/01 06:47:43;;;;;;;0.10;0.03;;;;;;;8.96;74.16;94274.69;4391368;32;20213;-53
2023/04/01 06:50:24;;;;;;;0.00;0.00;;;;;;;9.15;73.48;94271.00;4387694;32;20303;-53
2023/04/01 06:53:05;;;;;;;0.23;0.07;;;;;;;9.14;73.51;94274.75;4391870;32;20276;-53
2023/04/01 06:55:57;;;;;;;0.10;0.10;;;;;;;9.21;72.93;94270.53;4374625;32;20309;-51
2023/04/01 06:58:30;;;;;;;2.93;0.33;;;;;;;9.13;72.93;94289.06;4371179;32;20342;-49
2023/04/01 07:01:03;;;;;;;0.00;0.00;;;;;;;9.24;72.42;94274.44;4391099;32;20271;-48
2023/04/01 07:03:47;;;;;;;0.33;0.33;;;;;;;9.27;72.27;94284.41;4390873;32;20351;-49
2023/04/01 07:06:23;;;;;;;0.30;0.30;;;;;;;9.28;72.27;94280.66;4382567;32;20275;-49
2023/04/01 07:08:50;;;;;;;0.20;0.13;;;;;;;9.30;72.41;94278.50;4379953;32;20280;-50
2023/04/01 07:11:33;;;;;;;0.10;0.10;;;;;;;9.46;72.21;94287.53;4389961;32;20310;-50
2023/04/01 07:14:04;;;;;;;0.27;0.27;;;;;;;9.47;71.95;94283.78;4376913;32;20282;-52
2023/04/01 07:16:34;;;;;;;0.40;0.40;;;;;;;9.55;71.63;94269.78;4386194;32;20283;-51
2023/04/01 07:19:16;;;;;;;0.00;0.00;;;;;;;9.51;71.16;94289.25;4377638;32;20298;-51
2023/04/01 07:21:48;;;;;;;0.37;0.37;;;;;;;9.62;70.89;94278.03;4391213;32;20342;-51
2023/04/01 07:24:34;;;;;;;0.10;0.10;;;;;;;9.65;70.18;94280.03;4382198;32;20280;-51
2023/04/01 07:26:59;;;;;;;0.00;0.00;;;;;;;9.61;70.70;94284.41;4383487;32;20203;-50
2023/04/01 07:29:26;;;;;;;0.00;0.00;;;;;;;9.58;70.17;94287.66;4386483;32;20284;-53
2023/04/01 07:32:17;;;;;;;0.17;0.17;;;;;;;9.51;70.74;94283.94;4388534;32;20188;-53
2023/04/01 07:35:12;;;;;;;0.87;0.30;;;;;;;9.54;70.72;94286.75;4387988;32;20188;-53
2023/04/01 07:38:01;;;;;;;0.20;0.20;;;;;;;9.62;70.51;94277.25;4383637;32;20280;-51
2023/04/01 07:40:51;;;;;;;0.00;0.00;;;;;;;9.60;70.95;94287.34;4387131;32;20891;-51
2023/04/01 07:43:35;;;;;;;0.00;0.00;;;;;;;9.65;70.93;94273.97;4389389;32;20214;-50
2023/04/01 07:46:00;;;;;;;0.20;0.20;;;;;;;9.72;70.60;94278.81;4382632;32;20296;-52
2023/04/01 07:48:38;;;;;;;0.30;0.30;;;;;;;9.88;69.77;94279.88;4383878;32;20340;-54
2023/04/01 07:51:37;;;;;;;0.23;0.23;;;;;;;9.90;69.51;94296.22;4389657;32;20200;-51
2023/04/01 07:54:26;;;;;;;0.00;0.00;;;;;;;9.89;69.63;94281.44;4377077;32;20280;-53
2023/04/01 07:57:06;;;;;;;0.10;0.10;;;;;;;10.08;69.21;94278.44;4382550;32;20288;-52
2023/04/01 07:59:59;;;;;;;2.73;0.30;;;;;;;10.01;68.69;94276.25;4381291;32;20283;-52
2023/04/01 08:02:50;;;;;;;0.00;0.00;;;;;;;10.10;69.41;94284.19;4371694;32;20280;-53
2023/04/01 08:05:30;;;;;;;0.00;0.00;;;;;;;10.11;68.27;94286.53;4368187;32;20199;-52
2023/04/01 08:08:23;;;;;;;0.07;0.07;;;;;;;10.21;67.92;94286.22;4386855;32;20283;-47
2023/04/01 08:10:52;;;;;;;0.00;0.00;;;;;;;10.18;67.91;94286.06;4386796;32;20284;-50
2023/04/01 08:13:35;;;;;;;0.00;0.00;;;;;;;10.22;67.48;94292.28;4385092;32;20215;-52
2023/04/01 08:16:29;;;;;;;0.00;0.00;;;;;;;10.13;67.86;94288.88;4383494;32;20180;-49
2023/04/01 08:19:03;;;;;;;0.00;0.00;;;;;;;10.11;67.64;94286.53;4370710;32;20279;-48
2023/04/01 08:21:34;;;;;;;0.03;0.03;;;;;;;10.22;67.64;94285.13;4384581;32;20245;-49
2023/04/01 08:24:10;;;;;;;0.00;0.00;;;;;;;10.41;66.96;94299.87;4383581;32;20291;-52
2023/04/01 08:26:41;;;;;;;0.00;0.00;;;;;;;10.23;66.43;94285.91;4389320;32;20185;-53
2023/04/01 08:29:13;;;;;;;0.23;0.13;;;;;;;10.18;66.64;94284.19;4374046;32;20298;-53
2023/04/01 08:31:48;;;;;;;0.00;0.00;;;;;;;10.18;67.09;94286.84;4391451;32;20222;-52
2023/04/01 08:34:33;;;;;;;0.30;0.20;;;;;;;10.25;67.50;94284.50;4381605;32;20191;-52
2023/04/01 08:37:04;;;;;;;0.10;0.10;;;;;;;10.44;67.00;94272.72;4371909;32;20192;-52
2023/04/01 08:39:44;;;;;;;0.20;0.20;;;;;;;10.60;66.02;94279.06;4384033;32;20267;-50
2023/04/01 08:42:12;;;;;;;0.00;0.00;;;;;;;10.70;65.34;94276.06;4391977;32;20184;-51
2023/04/01 08:45:35;;;;;;;0.30;0.30;;;;;;;10.62;65.29;94279.53;4371009;32;20224;-53
2023/04/01 08:48:33;;;;;;;0.00;0.00;;;;;;;10.64;65.54;94274.69;4301679;33;20232;-52
2023/04/01 08:51:11;;;;;;;0.00;0.00;;;;;;;10.86;66.46;94266.47;4309650;33;20197;-53
2023/04/01 08:53:58;;;;;;;0.00;0.00;;;;;;;10.89;65.18;94265.81;4369693;32;20277;-51
2023/04/01 08:56:35;;;;;;;0.10;0.10;;;;;;;10.99;64.75;94259.38;4386380;32;20204;-51
2023/04/01 08:59:22;;;;;;;0.00;0.00;;;;;;;10.86;64.96;94263.81;4390311;32;20180;-53
2023/04/01 09:02:04;;;;;;;0.17;0.17;;;;;;;10.91;65.27;94266.28;4386513;32;20187;-53
2023/04/01 09:04:35;;;;;;;0.10;0.10;;;;;;;10.94;64.71;94275.47;4390403;32;20207;-50
2023/04/01 09:07:18;;;;;;;0.00;0.00;;;;;;;11.00;64.51;94272.31;4388881;32;20240;-52
2023/04/01 09:10:10;;;;;;;0.00;0.00;;;;;;;11.06;63.85;94266.81;4382635;32;20267;-50
2023/04/01 09:12:59;;;;;;;0.23;0.23;;;;;;;11.01;63.94;94259.84;4371159;32;20235;-50
2023/04/01 09:16:01;;;;;;;0.00;0.00;;;;;;;10.88;64.60;94276.75;4370547;32;20196;-53
2023/04/01 09:18:39;;;;;;;0.20;0.20;;;;;;;10.83;64.28;94264.44;4391319;32;20234;-53
2023/04/01 09:21:43;;;;;;;0.00;0.00;;;;;;;11.00;63.68;94256.41;4388344;32;20184;-54
2023/04/01 09:24:28;;;;;;;0.00;0.00;;;;;;;11.30;63.00;94256.34;4350601;32;20216;-55
2023/04/01 09:27:10;;;;;;;0.00;0.00;;;;;;;11.33;63.16;94271.63;4387427;32;20196;-53
2023/04/01 09:30:02;;;;;;;0.00;0.00;;;;;;;11.41;62.28;94260.19;4391600;32;20192;-54
2023/04/01 09:32:45;;;;;;;0.33;0.33;;;;;;;11.32;61.98;94238.22;4377075;32;20238;-54
2023/04/01 09:35:42;;;;;;;0.00;0.00;;;;;;;11.47;61.61;94263.41;4384726;32;22479;-51
2023/04/01 09:38:30;;;;;;;0.00;0.00;;;;;;;11.55;62.54;94244.75;4375968;32;20219;-54
2023/04/01 09:41:01;;;;;;;0.00;0.00;;;;;;;11.46;61.92;94254.66;4387082;32;20184;-55
2023/04/01 09:43:55;;;;;;;0.20;0.17;;;;;;;11.52;61.59;94240.09;4389535;32;20180;-52
2023/04/01 09:46:39;;;;;;;0.40;0.30;;;;;;;11.61;62.63;94240.81;4375739;32;20180;-55
2023/04/01 09:49:19;;;;;;;0.43;0.30;;;;;;;11.58;60.22;94240.66;4390162;32;20176;-54
2023/04/01 09:52:09;;;;;;;0.17;0.17;;;;;;;11.40;60.89;94244.56;4367484;32;20222;-51
2023/04/01 09:54:50;;;;;;;0.10;0.10;;;;;;;11.44;60.84;94225.00;4394285;32;20180;-51
2023/04/01 09:57:28;;;;;;;0.00;0.00;;;;;;;11.64;60.91;94228.72;4376728;32;20230;-50
2023/04/01 10:00:12;;;;;;;0.10;0.10;;;;;;;11.87;60.21;94235.25;4379876;32;20278;-54
2023/04/01 10:03:11;;;;;;;0.10;0.10;;;;;;;11.98;60.21;94223.13;4389721;32;20232;-52
2023/04/01 10:06:12;;;;;;;0.00;0.00;;;;;;;12.00;59.38;94230.78;4384742;32;20253;-51
2023/04/01 10:09:10;;;;;;;0.00;0.00;;;;;;;12.08;59.73;94215.81;4385634;32;20269;-48
2023/04/01 10:12:01;;;;;;;0.00;0.00;;;;;;;12.05;59.20;94217.28;4372508;32;20253;-52
2023/04/01 10:15:05;;;;;;;0.10;0.10;;;;;;;11.97;59.22;94226.09;4371864;32;20196;-53
2023/04/01 10:18:07;;;;;;;0.00;0.00;;;;;;;11.95;59.61;94238.94;4375172;32;20285;-53
2023/04/01 10:21:26;;;;;;;0.00;0.00;;;;;;;11.98;59.89;94222.34;4382112;32;20210;-53
2023/04/01 10:24:19;;;;;;;0.20;0.20;;;;;;;11.83;59.48;94205.16;4313585;33;20241;-53
2023/04/01 10:27:12;;;;;;;0.00;0.00;;;;;;;11.84;59.74;94216.56;4390550;32;20207;-54
2023/04/01 10:30:05;;;;;;;0.83;0.20;;;;;;;11.74;60.13;94211.62;4372744;32;20222;-53
2023/04/01 10:33:18;;;;;;;0.00;0.00;;;;;;;11.81;59.35;94225.19;4384892;32;20227;-54
2023/04/01 10:35:59;;;;;;;0.00;0.00;;;;;;;11.87;58.73;94221.19;4368539;32;20200;-50
2023/04/01 10:38:45;;;;;;;0.10;0.10;;;;;;;11.97;59.55;94215.47;4388781;32;20254;-55
2023/04/01 10:41:19;;;;;;;0.00;0.00;;;;;;;12.02;59.85;94218.72;4382294;32;20188;-53
2023/04/01 10:44:35;;;;;;;0.00;0.00;;;;;;;11.84;59.01;94219.22;4377824;32;20210;-51
2023/04/01 10:47:27;;;;;;;0.00;0.00;;;;;;;11.90;59.66;94237.25;4374407;32;20229;-52
2023/04/01 10:50:13;;;;;;;0.00;0.00;;;;;;;11.94;59.74;94218.78;4388360;32;20184;-51
2023/04/01 10:53:00;;;;;;;0.13;0.10;;;;;;;11.83;59.89;94255.63;4376027;32;20222;-53
2023/04/01 10:55:37;;;;;;;0.00;0.00;;;;;;;11.70;60.31;94225.53;4359912;32;20204;-52
2023/04/01 10:58:31;;;;;;;0.20;0.20;;;;;;;11.69;60.35;94236.50;4379769;32;20267;-53
2023/04/01 11:01:35;;;;;;;0.00;0.00;;;;;;;11.69;60.68;94226.66;4390672;32;20185;-54
2023/04/01 11:04:16;;;;;;;0.13;0.13;;;;;;;11.75;61.07;94237.84;4386593;32;20199;-54
2023/04/01 11:07:00;;;;;;;0.00;0.00;;;;;;;11.65;61.61;94225.75;4378466;32;20278;-52
2023/04/01 11:09:52;;;;;;;0.00;0.00;;;;;;;11.62;64.32;94244.25;4386818;32;20185;-54
2023/04/01 11:12:36;;;;;;;0.00;0.00;;;;;;;11.44;66.95;94235.59;4374799;32;20200;-50
2023/04/01 11:15:40;;;;;;;0.00;0.00;;;;;;;11.39;69.08;94246.44;4368393;32;20192;-54
2023/04/01 11:18:24;;;;;;;0.10;0.10;;;;;;;11.45;69.66;94242.47;4379179;32;20188;-53
2023/04/01 11:21:49;;;;;;;0.00;0.00;;;;;;;11.33;71.24;94259.13;4392562;32;20188;-53
2023/04/01 11:24:45;;;;;;;0.00;0.00;;;;;;;11.12;72.51;94246.94;4326332;33;20193;-51
2023/04/01 11:27:24;;;;;;;0.00;0.00;;;;;;;11.01;72.98;94265.12;4323578;33;20212;-52
2023/04/01 11:30:00;;;;;;;0.00;0.00;;;;;;;10.96;72.41;94244.88;4382699;32;20184;-50
2023/04/01 11:32:40;;;;;;;0.00;0.00;;;;;;;10.93;72.02;94239.44;4385533;32;20215;-52
2023/04/01 11:35:23;;;;;;;0.00;0.00;;;;;;;11.05;70.73;94244.03;4383664;32;20228;-53
2023/04/01 11:37:55;;;;;;;0.00;0.00;;;;;;;11.15;71.29;94270.97;4396856;32;20188;-53
2023/04/01 11:40:33;;;;;;;0.00;0.00;;;;;;;11.16;71.40;94266.44;4391280;32;20281;-54
2023/04/01 11:43:08;;;;;;;0.00;0.00;;;;;;;10.95;70.69;94267.19;4392832;32;20220;-53
2023/04/01 11:45:40;;;;;;;0.00;0.00;;;;;;;10.87;70.19;94252.09;4390029;32;20196;-50
2023/04/01 11:48:28;;;;;;;0.00;0.00;;;;;;;10.97;70.17;94262.34;4377928;32;20184;-54
2023/04/01 11:51:11;;;;;;;0.00;0.00;;;;;;;10.73;70.12;94275.44;4387318;32;20188;-53
2023/04/01 11:53:56;;;;;;;0.00;0.00;;;;;;;10.87;71.34;94264.59;4373619;32;20204;-53
2023/04/01 11:56:37;;;;;;;0.00;0.00;;;;;;;10.67;73.73;94282.00;4383902;32;20211;-53
2023/04/01 11:59:29;;;;;;;0.00;0.00;;;;;;;10.49;77.18;94283.94;4375558;32;20324;-52
2023/04/01 12:01:55;;;;;;;0.00;0.00;;;;;;;10.53;80.09;94297.34;4368865;32;20240;-54
2023/04/01 12:04:26;;;;;;;0.00;0.00;;;;;;;10.25;82.07;94303.03;4391938;32;20185;-51
2023/04/01 12:07:03;;;;;;;0.00;0.00;;;;;;;10.07;83.62;94313.97;4390973;32;20204;-49
2023/04/01 12:09:48;;;;;;;0.10;0.10;;;;;;;9.94;83.25;94307.75;4389073;32;20234;-51
2023/04/01 12:12:27;;;;;;;0.00;0.00;;;;;;;9.90;83.23;94320.06;4392141;32;20199;-50
2023/04/01 12:15:10;;;;;;;0.10;0.00;;;;;;;9.65;83.14;94309.19;4382312;32;20292;-53
2023/04/01 12:17:51;;;;;;;0.00;0.00;;;;;;;9.68;83.63;94299.06;4392697;32;20442;-51
2023/04/01 12:20:54;;;;;;;0.00;0.00;;;;;;;9.58;84.14;94300.13;4387662;32;20280;-51